Beaver County Airport Beaver Falls US
ICAO: KBVI
IATA: BFP
Category: Medium
Scheduled Services: No

Elevation: 1253 ft
TransAlt. 18000 ft.

Airport Communications:
PITTSBURGH APP/DEP:124.75
ATIS:118.35
PITTSBURGH CLNC DEL:124.85
CTAF:120.3
GND:121.8
ALTOONA RDO:115.8
TWR:120.3

KBVI Zoom In..

Runways:

(A) RW 10 length 4501 ft width 100 ft
LOC 109.30 / hdg 101

(B) RW 28 length 4501 ft width 100 ft
LOC 109.30 / hdg 281

Location; KBVI
Day. 06 / Time. 06.15 Zulu
* Altimeter: 29.90
* Temperature: 20° c. 68°f.
* Wind from: 220° Speed 04 kn.
Dewpoint: 18° c.
Visibility: 10 Statute Miles.
Clouds: Clear (automated report).

KBVI 060615Z AUTO 22004KT 10SM CLR 20/18 A2990 RMK AO2 T02000183


Wind From 220°
Speed 04 kn.

 
 
jpsmedia worldairports.se 2020   terms of use